createdAt,value
2023-01-23T00:02:09.647Z,102326.25
2023-01-23T00:04:36.425Z,102267.19
2023-01-23T00:07:03.637Z,102292.38
2023-01-23T00:09:30.600Z,102313.19
2023-01-23T00:11:57.799Z,102287.16
2023-01-23T00:14:24.519Z,102279.38
2023-01-23T00:16:51.249Z,102298.53
2023-01-23T00:19:18.124Z,102244.63
2023-01-23T00:21:44.859Z,102265.47
2023-01-23T00:24:12.752Z,102270.75
2023-01-23T00:26:39.593Z,102280.31
2023-01-23T00:29:06.707Z,102290.81
2023-01-23T00:31:35.898Z,102281.19
2023-01-23T00:34:06.772Z,102308.22
2023-01-23T00:36:36.532Z,102293.41
2023-01-23T00:39:06.755Z,102283.91
2023-01-23T00:41:33.786Z,102202.94
2023-01-23T00:44:00.499Z,102231.63
2023-01-23T00:46:27.273Z,102241.28
2023-01-23T00:48:54.054Z,102218.59
2023-01-23T00:51:20.884Z,102230.81
2023-01-23T00:53:47.745Z,102229.94
2023-01-23T00:56:14.463Z,102202.13
2023-01-23T00:58:44.098Z,102209.94
2023-01-23T01:01:11.839Z,102223.88
2023-01-23T01:03:38.638Z,102245.59
2023-01-23T01:06:05.914Z,102273.50
2023-01-23T01:08:32.932Z,102265.66
2023-01-23T01:10:59.793Z,102276.13
2023-01-23T01:13:27.087Z,102267.34
2023-01-23T01:15:54.502Z,102266.53
2023-01-23T01:18:22.761Z,102290.00
2023-01-23T01:20:49.965Z,102255.22
2023-01-23T01:23:17.247Z,102297.00
2023-01-23T01:25:44.001Z,102258.69
2023-01-23T01:28:10.676Z,102224.75
2023-01-23T01:30:37.885Z,102246.47
2023-01-23T01:33:05.069Z,102291.56
2023-01-23T01:35:32.317Z,102278.56
2023-01-23T01:37:59.563Z,102234.22
2023-01-23T01:40:34.326Z,102278.69
2023-01-23T01:43:09.463Z,102304.78
2023-01-23T01:46:15.153Z,102303.03
2023-01-23T01:49:02.754Z,102267.38
2023-01-23T01:51:39.133Z,102304.81
2023-01-23T01:54:12.056Z,102315.28
2023-01-23T01:56:45.754Z,102306.53
2023-01-23T01:59:14.154Z,102314.38
2023-01-23T02:01:46.473Z,102284.78
2023-01-23T02:04:14.097Z,102317.00
2023-01-23T02:06:40.928Z,102263.06
2023-01-23T02:09:37.986Z,102299.66
2023-01-23T02:12:05.315Z,102276.09
2023-01-23T02:14:32.070Z,102257.88
2023-01-23T02:17:01.245Z,102247.41
2023-01-23T02:19:48.472Z,102275.25
2023-01-23T02:22:54.082Z,102316.97
2023-01-23T02:26:00.557Z,102263.97
2023-01-23T02:28:42.171Z,102281.44
2023-01-23T02:31:09.585Z,102304.94
2023-01-23T02:33:36.211Z,102311.91
2023-01-23T02:36:05.665Z,102307.59
2023-01-23T02:38:40.201Z,102318.88
2023-01-23T02:41:10.662Z,102243.22
2023-01-23T02:43:38.423Z,102298.00
2023-01-23T02:46:07.174Z,102257.16
2023-01-23T02:48:34.061Z,102254.47
2023-01-23T02:51:00.735Z,102292.72
2023-01-23T02:53:27.832Z,102234.53
2023-01-23T02:55:54.536Z,102225.84
2023-01-23T02:58:39.744Z,102268.47
2023-01-23T03:01:06.521Z,102290.22
2023-01-23T03:03:33.273Z,102224.97
2023-01-23T03:06:03.295Z,102261.47
2023-01-23T03:08:36.226Z,102286.66
2023-01-23T03:11:04.496Z,102307.59
2023-01-23T03:13:31.581Z,102257.16
2023-01-23T03:15:58.498Z,102261.47
2023-01-23T03:18:27.717Z,102234.41
2023-01-23T03:20:54.509Z,102206.59
2023-01-23T03:23:21.275Z,102237.03
2023-01-23T03:25:49.136Z,102252.69
2023-01-23T03:28:34.197Z,102247.53
2023-01-23T03:31:00.998Z,102253.59
2023-01-23T03:33:27.679Z,102249.25
2023-01-23T03:35:54.397Z,102272.75
2023-01-23T03:38:21.099Z,102262.28
2023-01-23T03:41:09.289Z,102249.34
2023-01-23T03:43:35.977Z,102201.56
2023-01-23T03:46:02.679Z,102195.44
2023-01-23T03:48:29.420Z,102238.91
2023-01-23T03:50:56.102Z,102259.84
2023-01-23T03:53:23.453Z,102257.19
2023-01-23T03:55:50.183Z,102248.47
2023-01-23T03:58:16.906Z,102239.00
2023-01-23T04:00:43.621Z,102227.63
2023-01-23T04:03:10.396Z,102240.66
2023-01-23T04:05:37.112Z,102212.88
2023-01-23T04:08:03.994Z,102219.81
2023-01-23T04:10:30.919Z,102237.25
2023-01-23T04:12:57.640Z,102196.28
2023-01-23T04:15:24.392Z,102224.25
2023-01-23T04:17:51.113Z,102227.66
2023-01-23T04:20:18.020Z,102225.97
2023-01-23T04:22:44.915Z,102237.28
2023-01-23T04:25:11.599Z,102252.00
2023-01-23T04:27:38.267Z,102245.06
2023-01-23T04:30:05.326Z,102224.19
2023-01-23T04:32:31.988Z,102252.00
2023-01-23T04:34:58.653Z,102227.66
2023-01-23T04:37:25.358Z,102220.69
2023-01-23T04:39:52.067Z,102226.84
2023-01-23T04:42:18.740Z,102266.81
2023-01-23T04:44:45.510Z,102212.09
2023-01-23T04:47:12.221Z,102206.09
2023-01-23T04:49:39.059Z,102195.53
2023-01-23T04:52:05.832Z,102208.63
2023-01-23T04:54:32.542Z,102235.53
2023-01-23T04:56:59.556Z,102215.56
2023-01-23T04:59:26.344Z,102216.41
2023-01-23T05:01:53.022Z,102297.22
2023-01-23T05:04:19.699Z,102289.44
2023-01-23T05:06:46.390Z,102225.06
2023-01-23T05:09:13.696Z,102272.00
2023-01-23T05:11:40.403Z,102249.41
2023-01-23T05:14:07.116Z,102247.69
2023-01-23T05:16:33.818Z,102272.91
2023-01-23T05:19:00.485Z,102272.88
2023-01-23T05:21:27.232Z,102279.84
2023-01-23T05:23:53.949Z,102326.78
2023-01-23T05:26:20.875Z,102282.41
2023-01-23T05:28:47.617Z,102304.06
2023-01-23T05:31:14.477Z,102294.59
2023-01-23T05:33:41.325Z,102312.81
2023-01-23T05:36:08.449Z,102243.25
2023-01-23T05:38:35.263Z,102283.34
2023-01-23T05:41:02.435Z,102306.81
2023-01-23T05:43:29.131Z,102216.44
2023-01-23T05:45:55.901Z,102281.63
2023-01-23T05:48:22.560Z,102269.47
2023-01-23T05:50:49.245Z,102229.44
2023-01-23T05:53:15.964Z,102282.41
2023-01-23T05:55:42.696Z,102283.34
2023-01-23T05:58:09.448Z,102241.66
2023-01-23T06:00:36.825Z,102202.53
2023-01-23T06:03:03.545Z,102184.34
2023-01-23T06:05:30.345Z,102163.47
2023-01-23T06:07:57.105Z,102209.50
2023-01-23T06:10:24.211Z,102239.03
2023-01-23T06:12:50.876Z,102209.44
2023-01-23T06:15:17.592Z,102274.66
2023-01-23T06:17:44.827Z,102278.13
2023-01-23T06:20:12.628Z,102233.78
2023-01-23T06:22:39.347Z,102234.66
2023-01-23T06:25:06.585Z,102224.28
2023-01-23T06:27:33.365Z,102232.03
2023-01-23T06:30:00.027Z,102230.28
2023-01-23T06:32:26.724Z,102269.34
2023-01-23T06:34:53.527Z,102274.63
2023-01-23T06:37:20.207Z,102265.06
2023-01-23T06:39:46.930Z,102232.91
2023-01-23T06:42:13.656Z,102209.47
2023-01-23T06:44:40.348Z,102267.75
2023-01-23T06:47:07.080Z,102243.38
2023-01-23T06:49:33.929Z,102281.56
2023-01-23T06:52:00.629Z,102281.53
2023-01-23T06:54:27.355Z,102252.78
2023-01-23T06:56:54.124Z,102280.69
2023-01-23T06:59:20.797Z,102259.78
2023-01-23T07:01:47.519Z,102232.03
2023-01-23T07:04:14.208Z,102265.88
2023-01-23T07:06:40.872Z,102306.75
2023-01-23T07:09:07.651Z,102251.97
2023-01-23T07:11:36.107Z,102238.09
2023-01-23T07:14:02.943Z,102314.53
2023-01-23T07:16:29.728Z,102265.00
2023-01-23T07:18:59.162Z,102290.25
2023-01-23T07:21:25.941Z,102255.44
2023-01-23T07:23:52.667Z,102249.38
2023-01-23T07:26:19.574Z,102271.09
2023-01-23T07:28:46.301Z,102250.19
2023-01-23T07:31:13.215Z,102295.41
2023-01-23T07:33:39.981Z,102294.56
2023-01-23T07:36:07.712Z,102265.03
2023-01-23T07:38:34.662Z,102326.75
2023-01-23T07:41:01.393Z,102299.78
2023-01-23T07:43:28.121Z,102299.78
2023-01-23T07:45:54.857Z,102321.47
2023-01-23T07:48:21.586Z,102294.50
2023-01-23T07:50:48.327Z,102339.72
2023-01-23T07:53:15.027Z,102313.63
2023-01-23T07:55:41.731Z,102283.06
2023-01-23T07:58:08.454Z,102331.75
2023-01-23T08:00:35.283Z,102323.00
2023-01-23T08:03:02.117Z,102316.09
2023-01-23T08:05:28.840Z,102354.31
2023-01-23T08:08:11.435Z,102339.66
2023-01-23T08:10:39.202Z,102319.63
2023-01-23T08:13:05.956Z,102325.69
2023-01-23T08:15:32.668Z,102315.22
2023-01-23T08:17:59.398Z,102330.91
2023-01-23T08:20:26.123Z,102291.69
2023-01-23T08:22:52.864Z,102303.06
2023-01-23T08:25:19.699Z,102319.59
2023-01-23T08:27:46.407Z,102290.91
2023-01-23T08:30:13.556Z,102346.63
2023-01-23T08:32:40.242Z,102310.16
2023-01-23T08:35:07.454Z,102284.81
2023-01-23T08:37:34.553Z,102330.09
2023-01-23T08:40:01.414Z,102275.31
2023-01-23T08:42:28.239Z,102286.59
2023-01-23T08:44:54.991Z,102295.31
2023-01-23T08:47:21.868Z,102330.91
2023-01-23T08:49:48.558Z,102310.13
2023-01-23T08:52:15.410Z,102298.72
2023-01-23T08:54:42.135Z,102307.53
2023-01-23T08:57:08.908Z,102347.50
2023-01-23T08:59:35.583Z,102343.13
2023-01-23T09:02:02.729Z,102311.81
2023-01-23T09:04:29.509Z,102358.00
2023-01-23T09:06:56.216Z,102291.84
2023-01-23T09:09:24.240Z,102370.16
2023-01-23T09:11:51.063Z,102288.38
2023-01-23T09:14:18.005Z,102318.88
2023-01-23T09:16:44.992Z,102307.63
2023-01-23T09:19:12.875Z,102292.03
2023-01-23T09:21:40.021Z,102276.34
2023-01-23T09:24:06.953Z,102295.41
2023-01-23T09:26:33.669Z,102324.16
2023-01-23T09:29:00.379Z,102318.97
2023-01-23T09:31:27.185Z,102287.63
2023-01-23T09:33:54.109Z,102322.47
2023-01-23T09:36:33.710Z,102290.28
2023-01-23T09:39:07.511Z,102288.53
2023-01-23T09:41:34.396Z,102328.53
2023-01-23T09:44:11.515Z,102318.13
2023-01-23T09:46:42.162Z,102326.78
2023-01-23T09:49:19.717Z,102309.47
2023-01-23T09:52:01.143Z,102342.50
2023-01-23T09:55:04.252Z,102373.78
2023-01-23T09:57:41.676Z,102299.00
2023-01-23T10:00:30.896Z,102367.72
2023-01-23T10:03:00.216Z,102355.53
2023-01-23T10:05:44.030Z,102334.69
2023-01-23T10:08:18.208Z,102320.78
2023-01-23T10:10:50.546Z,102371.19
2023-01-23T10:13:17.288Z,102372.94
2023-01-23T10:16:12.763Z,102371.22
2023-01-23T10:18:54.561Z,102363.41
2023-01-23T10:21:26.541Z,102377.28
2023-01-23T10:24:38.005Z,102365.16
2023-01-23T10:27:16.022Z,102376.44
2023-01-23T10:29:48.729Z,102332.09
2023-01-23T10:32:25.650Z,102335.56
2023-01-23T10:35:02.216Z,102336.47
2023-01-23T10:37:43.057Z,102311.25
2023-01-23T10:40:15.198Z,102361.69
2023-01-23T10:42:41.959Z,102307.81
2023-01-23T10:45:18.176Z,102275.63
2023-01-23T10:47:50.115Z,102352.13
2023-01-23T10:50:36.373Z,102284.34
2023-01-23T10:53:08.581Z,102319.97
2023-01-23T10:55:35.348Z,102338.22
2023-01-23T10:58:03.276Z,102287.81
2023-01-23T11:00:45.247Z,102312.13
2023-01-23T11:03:40.866Z,102339.09
2023-01-23T11:06:10.024Z,102283.47
2023-01-23T11:08:49.947Z,102342.53
2023-01-23T11:11:16.668Z,102332.09
2023-01-23T11:13:45.995Z,102300.84
2023-01-23T11:16:19.488Z,102291.28
2023-01-23T11:19:02.945Z,102260.00
2023-01-23T11:21:30.487Z,102328.63
2023-01-23T11:24:38.140Z,102329.50
2023-01-23T11:27:16.034Z,102334.72
2023-01-23T11:29:48.723Z,102326.00
2023-01-23T11:32:17.489Z,102286.94
2023-01-23T11:34:50.867Z,102313.88
2023-01-23T11:37:35.104Z,102333.84
2023-01-23T11:40:28.225Z,102321.69
2023-01-23T11:42:55.742Z,102298.22
2023-01-23T11:49:10.097Z,102306.03
2023-01-23T11:51:42.149Z,102325.16
2023-01-23T11:54:17.360Z,102322.56
2023-01-23T11:56:50.285Z,102331.25
2023-01-23T11:59:19.970Z,102324.28
2023-01-23T12:02:34.488Z,102321.63
2023-01-23T12:05:20.475Z,102272.97
2023-01-23T12:08:23.467Z,102304.22
2023-01-23T12:11:16.781Z,102308.56
2023-01-23T12:13:46.421Z,102311.16
2023-01-23T12:16:22.386Z,102278.13
2023-01-23T12:19:11.771Z,102258.13
2023-01-23T12:21:41.408Z,102295.50
2023-01-23T12:24:40.041Z,102292.00
2023-01-23T12:27:19.086Z,102271.13
2023-01-23T12:30:05.559Z,102261.56
2023-01-23T12:32:50.585Z,102296.25
2023-01-23T12:35:41.699Z,102295.41
2023-01-23T12:38:30.675Z,102297.94
2023-01-23T12:41:23.657Z,102276.22
2023-01-23T12:44:01.930Z,102295.34
2023-01-23T12:46:51.680Z,102238.88
2023-01-23T12:49:31.972Z,102299.66
2023-01-23T12:52:18.948Z,102284.69
2023-01-23T12:54:57.070Z,102295.09
2023-01-23T12:57:52.526Z,102275.25
2023-01-23T13:00:48.512Z,102287.38
2023-01-23T13:03:45.714Z,102306.44
2023-01-23T13:06:38.062Z,102310.75
2023-01-23T13:09:18.918Z,102301.34
2023-01-23T13:11:58.834Z,102326.50
2023-01-23T13:15:03.438Z,102283.97
2023-01-23T13:17:37.532Z,102290.84
2023-01-23T13:20:41.828Z,102315.94
2023-01-23T13:23:30.723Z,102307.28
2023-01-23T13:26:15.874Z,102311.66
2023-01-23T13:28:45.899Z,102314.31
2023-01-23T13:31:27.536Z,102253.56
2023-01-23T13:34:06.763Z,102315.19
2023-01-23T13:36:41.688Z,102296.91
2023-01-23T13:39:17.601Z,102296.06
2023-01-23T13:41:46.339Z,102283.97
2023-01-23T13:44:22.992Z,102303.88
2023-01-23T14:24:57.053Z,102277.91
2023-01-23T14:27:52.002Z,102222.34
2023-01-23T14:30:28.338Z,102247.56
2023-01-23T14:32:55.502Z,102284.91
2023-01-23T14:35:32.154Z,102305.78
2023-01-23T14:38:08.419Z,102252.00
2023-01-23T14:40:49.484Z,102252.84
2023-01-23T14:43:27.809Z,102310.09
2023-01-23T14:46:00.166Z,102295.41
2023-01-23T14:48:28.115Z,102287.63
2023-01-23T14:51:29.154Z,102277.22
2023-01-23T14:54:01.941Z,102288.53
2023-01-23T14:56:35.682Z,102285.88
2023-01-23T14:59:06.047Z,102319.81
2023-01-23T15:01:35.640Z,102305.00
2023-01-23T15:04:19.513Z,102252.06
2023-01-23T15:06:52.612Z,102272.88
2023-01-23T15:09:45.719Z,102305.00
2023-01-23T15:12:17.406Z,102252.91
2023-01-23T15:14:45.174Z,102313.72
2023-01-23T15:17:19.754Z,102346.78
2023-01-23T15:19:59.423Z,102335.47
2023-01-23T15:22:28.858Z,102350.25
2023-01-23T15:24:56.536Z,102310.28
2023-01-23T15:27:33.432Z,102318.13
2023-01-23T15:30:29.009Z,102348.53
2023-01-23T15:32:56.922Z,102333.75
2023-01-23T15:35:24.830Z,102325.06
2023-01-23T15:37:56.076Z,102359.88
2023-01-23T15:40:27.796Z,102339.84
2023-01-23T15:43:13.124Z,102365.91
2023-01-23T15:45:39.890Z,102367.69
2023-01-23T15:48:06.880Z,102315.50
2023-01-23T15:50:33.643Z,102318.91
2023-01-23T15:53:00.494Z,102378.75
2023-01-23T15:55:28.712Z,102357.22
2023-01-23T15:57:56.159Z,102379.81
2023-01-23T16:00:25.391Z,102339.88
2023-01-23T16:02:56.836Z,102386.78
2023-01-23T16:05:37.446Z,102365.09
2023-01-23T16:08:06.477Z,102313.78
2023-01-23T16:10:39.845Z,102385.97
2023-01-23T16:13:07.970Z,102370.34
2023-01-23T16:15:35.868Z,102345.13
2023-01-23T16:18:06.460Z,102394.69
2023-01-23T16:20:39.347Z,102402.50
2023-01-23T16:23:15.564Z,102360.78
2023-01-23T16:25:45.788Z,102376.41
2023-01-23T16:28:13.152Z,102409.47
2023-01-23T16:30:39.842Z,102333.75
2023-01-23T16:33:06.813Z,102406.78
2023-01-23T16:35:33.901Z,102327.72
2023-01-23T16:38:00.704Z,102341.66
2023-01-23T16:40:30.612Z,102401.63
2023-01-23T16:42:57.479Z,102350.38
2023-01-23T16:45:29.359Z,102375.56
2023-01-23T16:47:56.445Z,102410.34
2023-01-23T16:50:31.912Z,102339.09
2023-01-23T16:53:07.984Z,102372.97
2023-01-23T16:55:40.092Z,102368.63
2023-01-23T16:58:13.881Z,102426.03
2023-01-23T17:00:42.508Z,102397.31
2023-01-23T17:03:10.440Z,102393.00
2023-01-23T17:05:37.337Z,102398.22
2023-01-23T17:08:17.795Z,102391.25
2023-01-23T17:10:47.038Z,102378.22
2023-01-23T17:13:16.143Z,102390.38
2023-01-23T17:15:43.046Z,102370.38
2023-01-23T17:18:27.111Z,102406.00
2023-01-23T17:20:55.218Z,102356.47
2023-01-23T17:23:23.554Z,102420.78
2023-01-23T17:26:00.262Z,102381.66
2023-01-23T17:28:28.213Z,102379.06
2023-01-23T17:30:55.706Z,102428.63
2023-01-23T17:33:31.760Z,102432.09
2023-01-23T17:36:00.064Z,102389.50
2023-01-23T17:38:34.537Z,102446.91
2023-01-23T17:41:01.992Z,102408.63
2023-01-23T17:43:29.479Z,102419.91
2023-01-23T17:45:56.594Z,102406.03
2023-01-23T17:48:38.700Z,102438.19
2023-01-23T17:51:12.675Z,102406.88
2023-01-23T17:53:39.975Z,102401.69
2023-01-23T17:56:07.844Z,102446.00
2023-01-23T17:58:34.627Z,102428.63
2023-01-23T18:01:01.579Z,102415.59
2023-01-23T18:03:28.325Z,102418.19
2023-01-23T18:05:55.019Z,102440.78
2023-01-23T18:08:22.893Z,102375.59
2023-01-23T18:10:53.356Z,102404.28
2023-01-23T18:13:29.160Z,102462.56
2023-01-23T18:15:58.680Z,102463.41
2023-01-23T18:18:34.259Z,102421.66
2023-01-23T18:21:02.922Z,102443.38
2023-01-23T18:23:32.515Z,102473.00
2023-01-23T18:26:32.293Z,102468.66
2023-01-23T18:29:17.644Z,102466.91
2023-01-23T18:32:00.626Z,102464.31
2023-01-23T18:35:03.065Z,102448.63
2023-01-23T18:37:55.594Z,102439.91
2023-01-23T18:40:47.039Z,102473.00
2023-01-23T18:43:31.894Z,102473.84
2023-01-23T18:45:58.857Z,102425.16
2023-01-23T18:48:26.312Z,102450.34
2023-01-23T18:51:16.836Z,102479.94
2023-01-23T18:53:55.828Z,102481.69
2023-01-23T18:56:42.326Z,102487.78
2023-01-23T18:59:39.936Z,102486.00
2023-01-23T19:02:21.841Z,102482.53
2023-01-23T19:05:03.745Z,102451.25
2023-01-23T19:07:30.583Z,102438.22
2023-01-23T19:09:57.647Z,102454.75
2023-01-23T19:12:44.618Z,102420.78
2023-01-23T19:15:25.051Z,102492.13
2023-01-23T19:18:09.447Z,102484.28
2023-01-23T19:20:45.390Z,102493.00
2023-01-23T19:23:38.886Z,102509.53
2023-01-23T19:26:05.963Z,102486.94
2023-01-23T19:28:32.908Z,102425.13
2023-01-23T19:31:00.308Z,102468.66
2023-01-23T19:33:27.081Z,102439.06
2023-01-23T19:35:56.776Z,102480.84
2023-01-23T19:38:23.696Z,102460.81
2023-01-23T19:40:50.681Z,102489.53
2023-01-23T19:43:17.967Z,102493.00
2023-01-23T19:45:45.644Z,102498.22
2023-01-23T19:48:13.022Z,102473.88
2023-01-23T19:50:40.385Z,102506.91
2023-01-23T19:53:07.478Z,102512.13
2023-01-23T19:55:36.480Z,102472.09
2023-01-23T19:58:03.302Z,102473.84
2023-01-23T20:00:33.578Z,102513.00
2023-01-23T20:03:00.227Z,102494.75
2023-01-23T20:05:27.453Z,102505.19
2023-01-23T20:07:54.205Z,102475.59
2023-01-23T20:10:21.504Z,102492.13
2023-01-23T20:12:55.500Z,102498.19
2023-01-23T20:15:25.678Z,102471.25
2023-01-23T20:17:53.290Z,102483.44
2023-01-23T20:20:21.387Z,102511.28
2023-01-23T20:22:48.695Z,102491.25
2023-01-23T20:25:16.924Z,102512.16
2023-01-23T20:27:43.814Z,102494.72
2023-01-23T20:30:17.067Z,102506.91
2023-01-23T20:32:43.971Z,102510.41
2023-01-23T20:35:11.654Z,102499.06
2023-01-23T20:37:38.432Z,102454.72
2023-01-23T20:40:05.675Z,102497.38
2023-01-23T20:42:33.879Z,102493.84
2023-01-23T20:45:00.528Z,102469.53
2023-01-23T20:47:27.229Z,102502.59
2023-01-23T20:49:53.924Z,102505.16
2023-01-23T20:52:38.933Z,102495.56
2023-01-23T20:55:05.950Z,102469.53
2023-01-23T20:57:51.724Z,102493.88
2023-01-23T21:00:18.854Z,102502.59
2023-01-23T21:02:45.641Z,102484.28
2023-01-23T21:05:12.438Z,102502.56
2023-01-23T21:07:39.080Z,102509.53
2023-01-23T21:10:06.539Z,102499.09
2023-01-23T21:12:33.442Z,102509.53
2023-01-23T21:15:00.981Z,102454.69
2023-01-23T21:17:27.722Z,102480.81
2023-01-23T21:19:54.414Z,102499.94
2023-01-23T21:22:21.122Z,102471.16
2023-01-23T21:24:47.765Z,102488.47
2023-01-23T21:27:14.483Z,102484.97
2023-01-23T21:29:41.340Z,102497.28
2023-01-23T21:32:08.212Z,102499.94
2023-01-23T21:34:35.024Z,102517.31
2023-01-23T21:37:01.816Z,102499.94
2023-01-23T21:39:28.520Z,102483.41
2023-01-23T21:41:55.152Z,102482.56
2023-01-23T21:44:21.804Z,102483.41
2023-01-23T21:46:49.287Z,102447.75
2023-01-23T21:49:16.142Z,102473.84
2023-01-23T21:51:43.149Z,102502.56
2023-01-23T21:54:09.933Z,102503.44
2023-01-23T21:56:36.715Z,102490.38
2023-01-23T21:59:03.715Z,102482.56
2023-01-23T22:01:36.251Z,102496.47
2023-01-23T22:04:18.464Z,102523.44
2023-01-23T22:06:46.435Z,102511.25
2023-01-23T22:09:18.287Z,102526.91
2023-01-23T22:11:46.428Z,102525.19
2023-01-23T22:14:13.622Z,102509.53
2023-01-23T22:16:49.842Z,102529.53
2023-01-23T22:19:21.056Z,102488.66
2023-01-23T22:21:49.530Z,102538.25
2023-01-23T22:24:16.232Z,102527.78
2023-01-23T22:26:43.698Z,102540.00
2023-01-23T22:29:15.205Z,102514.78
2023-01-23T22:31:42.847Z,102546.06
2023-01-23T22:34:09.888Z,102546.09
2023-01-23T22:36:36.901Z,102542.59
2023-01-23T22:39:04.158Z,102516.50
2023-01-23T22:41:31.084Z,102533.03
2023-01-23T22:43:59.477Z,102505.19
2023-01-23T22:46:26.494Z,102553.06
2023-01-23T22:48:53.182Z,102548.72
2023-01-23T22:51:24.365Z,102549.56
2023-01-23T22:53:52.189Z,102551.31
2023-01-23T22:56:19.016Z,102543.44
2023-01-23T22:58:47.163Z,102542.53
2023-01-23T23:01:14.248Z,102523.34
2023-01-23T23:03:41.506Z,102515.56
2023-01-23T23:06:10.592Z,102551.25
2023-01-23T23:08:37.328Z,102544.25
2023-01-23T23:11:06.857Z,102548.63
2023-01-23T23:13:36.794Z,102539.03
2023-01-23T23:16:08.996Z,102533.81
2023-01-23T23:18:38.265Z,102537.31
2023-01-23T23:21:09.917Z,102534.66
2023-01-23T23:23:36.994Z,102518.13
2023-01-23T23:26:05.759Z,102539.88
2023-01-23T23:28:34.184Z,102541.63
2023-01-23T23:31:01.328Z,102526.81
2023-01-23T23:33:28.365Z,102491.16
2023-01-23T23:35:55.280Z,102534.66
2023-01-23T23:38:22.156Z,102530.31
2023-01-23T23:41:06.485Z,102515.53
2023-01-23T23:43:33.827Z,102535.53
2023-01-23T23:46:02.885Z,102547.69
2023-01-23T23:48:30.337Z,102551.19
2023-01-23T23:51:00.157Z,102551.19
2023-01-23T23:53:27.154Z,102540.78
2023-01-23T23:55:54.205Z,102538.16
2023-01-23T23:58:20.960Z,102518.16
